createdAt,value
2024-03-09T00:01:50.882Z,11.67
2024-03-09T00:04:17.874Z,11.77
2024-03-09T00:06:44.788Z,11.20
2024-03-09T00:09:11.695Z,12.43
2024-03-09T00:11:38.730Z,11.33
2024-03-09T00:14:05.752Z,13.70
2024-03-09T00:16:32.768Z,12.23
2024-03-09T00:18:59.728Z,10.87
2024-03-09T00:21:26.663Z,12.47
2024-03-09T00:23:53.585Z,11.03
2024-03-09T00:26:20.458Z,10.73
2024-03-09T00:28:47.435Z,11.83
2024-03-09T00:31:14.402Z,12.23
2024-03-09T00:33:41.384Z,12.13
2024-03-09T00:36:10.023Z,12.87
2024-03-09T00:38:39.654Z,11.43
2024-03-09T00:41:06.768Z,10.80
2024-03-09T00:43:33.927Z,12.53
2024-03-09T00:46:00.852Z,12.37
2024-03-09T00:48:27.805Z,11.00
2024-03-09T00:50:54.749Z,11.77
2024-03-09T00:53:21.689Z,11.80
2024-03-09T00:55:48.689Z,11.23
2024-03-09T00:58:15.768Z,12.17
2024-03-09T01:00:42.749Z,11.13
2024-03-09T01:03:09.749Z,11.63
2024-03-09T01:05:36.688Z,12.03
2024-03-09T01:08:03.960Z,12.17
2024-03-09T01:10:31.093Z,11.23
2024-03-09T01:12:57.985Z,11.43
2024-03-09T01:15:24.910Z,11.67
2024-03-09T01:17:51.843Z,10.80
2024-03-09T01:20:18.859Z,12.73
2024-03-09T01:22:46.420Z,10.97
2024-03-09T01:25:14.289Z,11.30
2024-03-09T01:27:41.801Z,10.73
2024-03-09T01:30:09.270Z,11.07
2024-03-09T01:32:36.164Z,11.63
2024-03-09T01:35:03.884Z,10.50
2024-03-09T01:37:31.028Z,11.10
2024-03-09T01:39:58.091Z,11.07
2024-03-09T01:42:25.116Z,9.33
2024-03-09T01:44:52.772Z,10.10
2024-03-09T01:47:27.719Z,12.30
2024-03-09T01:49:57.651Z,11.50
2024-03-09T01:52:30.159Z,11.20
2024-03-09T01:54:57.358Z,9.53
2024-03-09T01:57:25.243Z,11.77
2024-03-09T01:59:53.788Z,11.50
2024-03-09T02:02:20.769Z,10.97
2024-03-09T02:04:48.597Z,11.63
2024-03-09T02:07:16.050Z,11.50
2024-03-09T02:09:47.026Z,11.87
2024-03-09T02:12:15.196Z,10.90
2024-03-09T02:14:42.149Z,10.57
2024-03-09T02:17:09.261Z,10.70
2024-03-09T02:19:37.599Z,11.53
2024-03-09T02:22:06.057Z,10.70
2024-03-09T02:24:39.773Z,9.90
2024-03-09T02:27:06.765Z,9.10
2024-03-09T02:29:34.324Z,9.63
2024-03-09T02:32:01.335Z,11.87
2024-03-09T02:34:28.324Z,11.20
2024-03-09T02:36:55.331Z,9.80
2024-03-09T02:39:22.299Z,10.03
2024-03-09T02:41:49.312Z,11.50
2024-03-09T02:44:16.276Z,9.70
2024-03-09T02:46:43.283Z,9.33
2024-03-09T02:49:10.163Z,11.17
2024-03-09T02:51:37.392Z,11.03
2024-03-09T02:54:04.429Z,11.27
2024-03-09T02:56:31.678Z,8.97
2024-03-09T02:58:58.652Z,9.53
2024-03-09T03:01:25.699Z,11.33
2024-03-09T03:03:52.626Z,9.70
2024-03-09T03:06:21.594Z,9.97
2024-03-09T03:08:53.541Z,9.20
2024-03-09T03:11:21.525Z,9.20
2024-03-09T03:13:50.984Z,10.67
2024-03-09T03:16:25.918Z,9.10
2024-03-09T03:18:57.024Z,10.70
2024-03-09T03:21:24.225Z,11.03
2024-03-09T03:23:52.533Z,10.07
2024-03-09T03:26:20.496Z,9.93
2024-03-09T03:28:50.406Z,10.80
2024-03-09T03:31:18.911Z,9.10
2024-03-09T03:33:47.324Z,10.00
2024-03-09T03:36:17.650Z,10.90
2024-03-09T03:38:45.102Z,10.17
2024-03-09T03:41:12.214Z,9.67
2024-03-09T03:43:39.759Z,10.90
2024-03-09T03:46:08.398Z,9.67
2024-03-09T03:48:35.345Z,9.33
2024-03-09T03:51:02.351Z,9.70
2024-03-09T03:53:29.697Z,9.50
2024-03-09T03:55:56.582Z,10.43
2024-03-09T03:58:23.482Z,10.10
2024-03-09T04:00:51.179Z,10.73
2024-03-09T04:03:18.271Z,11.37
2024-03-09T04:05:46.353Z,11.23
2024-03-09T04:08:13.297Z,10.00
2024-03-09T04:10:40.343Z,10.47
2024-03-09T04:13:07.280Z,10.57
2024-03-09T04:15:34.208Z,11.20
2024-03-09T04:18:01.170Z,11.23
2024-03-09T04:20:28.137Z,11.97
2024-03-09T04:22:55.062Z,11.27
2024-03-09T04:25:21.982Z,12.43
2024-03-09T04:27:48.863Z,11.23
2024-03-09T04:30:15.851Z,13.00
2024-03-09T04:32:42.741Z,11.40
2024-03-09T04:35:10.135Z,11.93
2024-03-09T04:37:37.373Z,11.80
2024-03-09T04:40:04.931Z,11.50
2024-03-09T04:42:31.895Z,12.60
2024-03-09T04:44:58.900Z,13.37
2024-03-09T04:47:25.795Z,12.97
2024-03-09T04:49:52.739Z,11.33
2024-03-09T04:52:19.730Z,13.30
2024-03-09T04:54:46.765Z,12.80
2024-03-09T04:57:14.071Z,13.53
2024-03-09T04:59:41.181Z,13.20
2024-03-09T05:02:08.167Z,13.80
2024-03-09T05:04:35.365Z,13.00
2024-03-09T05:07:02.292Z,13.50
2024-03-09T05:09:29.213Z,14.97
2024-03-09T05:11:56.222Z,14.10
2024-03-09T05:14:23.223Z,12.23
2024-03-09T05:16:50.157Z,13.30
2024-03-09T05:19:17.267Z,14.30
2024-03-09T05:21:44.441Z,13.00
2024-03-09T05:24:11.746Z,13.97
2024-03-09T05:26:38.768Z,13.80
2024-03-09T05:29:05.738Z,12.70
2024-03-09T05:31:32.715Z,13.90
2024-03-09T05:33:59.637Z,15.00
2024-03-09T05:36:26.611Z,13.80
2024-03-09T05:38:54.757Z,14.13
2024-03-09T05:41:23.489Z,13.67
2024-03-09T05:43:50.608Z,13.27
2024-03-09T05:46:18.384Z,16.17
2024-03-09T05:48:45.631Z,14.23
2024-03-09T05:51:13.567Z,15.10
2024-03-09T05:53:40.529Z,15.77
2024-03-09T05:56:08.087Z,14.57
2024-03-09T05:58:35.114Z,15.03
2024-03-09T06:01:02.099Z,15.60
2024-03-09T06:03:29.112Z,14.40
2024-03-09T06:05:57.170Z,14.03
2024-03-09T06:08:24.506Z,14.47
2024-03-09T06:10:59.101Z,16.77
2024-03-09T06:13:28.795Z,15.70
2024-03-09T06:15:55.810Z,17.07
2024-03-09T06:18:22.735Z,15.37
2024-03-09T06:20:49.750Z,16.90
2024-03-09T06:23:17.001Z,16.53
2024-03-09T06:25:43.943Z,18.27
2024-03-09T06:28:11.940Z,17.77
2024-03-09T06:30:38.958Z,18.40
2024-03-09T06:33:06.151Z,16.00
2024-03-09T06:35:33.653Z,17.63
2024-03-09T06:38:05.219Z,16.47
2024-03-09T06:40:34.646Z,16.77
2024-03-09T06:43:04.494Z,18.53
2024-03-09T06:45:31.597Z,14.80
2024-03-09T06:47:59.556Z,16.23
2024-03-09T06:50:33.830Z,17.03
2024-03-09T06:53:01.212Z,16.07
2024-03-09T06:55:29.703Z,15.93
2024-03-09T06:57:58.370Z,17.10
2024-03-09T07:00:25.321Z,16.57
2024-03-09T07:02:52.471Z,16.37
2024-03-09T07:05:19.467Z,14.80
2024-03-09T07:07:46.462Z,15.50
2024-03-09T07:10:13.587Z,17.20
2024-03-09T07:12:41.142Z,14.73
2024-03-09T07:15:13.226Z,17.97
2024-03-09T07:17:40.299Z,16.17
2024-03-09T07:20:08.066Z,18.80
2024-03-09T07:22:35.172Z,17.70
2024-03-09T07:25:02.178Z,19.23
2024-03-09T07:27:29.087Z,18.10
2024-03-09T07:29:56.010Z,16.87
2024-03-09T07:32:23.094Z,16.30
2024-03-09T07:34:50.123Z,15.87
2024-03-09T07:37:17.103Z,16.47
2024-03-09T07:39:44.061Z,14.77
2024-03-09T07:42:11.010Z,16.10
2024-03-09T07:44:37.862Z,14.50
2024-03-09T07:47:05.198Z,15.33
2024-03-09T07:49:32.208Z,15.00
2024-03-09T07:51:59.115Z,13.83
2024-03-09T07:54:26.060Z,14.23
2024-03-09T07:56:53.011Z,15.60
2024-03-09T07:59:19.926Z,15.33
2024-03-09T08:01:49.202Z,14.07
2024-03-09T08:04:16.707Z,13.60
2024-03-09T08:06:43.641Z,14.73
2024-03-09T08:09:10.791Z,13.23
2024-03-09T08:11:37.777Z,13.40
2024-03-09T08:14:04.728Z,13.50
2024-03-09T08:16:31.681Z,13.30
2024-03-09T08:18:58.642Z,12.37
2024-03-09T08:21:25.836Z,12.37
2024-03-09T08:23:52.829Z,14.27
2024-03-09T08:26:20.228Z,12.33
2024-03-09T08:28:47.224Z,12.53
2024-03-09T08:31:14.694Z,13.90
2024-03-09T08:33:41.592Z,14.30
2024-03-09T08:36:09.112Z,13.90
2024-03-09T08:38:36.084Z,12.97
2024-03-09T08:41:03.076Z,12.07
2024-03-09T08:43:30.068Z,12.73
2024-03-09T08:45:57.083Z,12.83
2024-03-09T08:48:24.021Z,12.30
2024-03-09T08:50:51.100Z,12.07
2024-03-09T08:53:18.134Z,11.20
2024-03-09T08:55:45.257Z,11.77
2024-03-09T08:58:12.221Z,11.37
2024-03-09T09:00:39.320Z,11.23
2024-03-09T09:03:06.438Z,10.93
2024-03-09T09:05:33.418Z,11.27
2024-03-09T09:08:00.657Z,11.10
2024-03-09T09:10:28.271Z,11.57
2024-03-09T09:12:55.253Z,10.37
2024-03-09T09:15:22.323Z,11.10
2024-03-09T09:17:49.246Z,10.53
2024-03-09T09:20:16.300Z,10.67
2024-03-09T09:22:46.057Z,10.70
2024-03-09T09:25:13.165Z,9.50
2024-03-09T09:27:43.365Z,9.70
2024-03-09T09:30:10.955Z,10.00
2024-03-09T09:32:38.422Z,8.37
2024-03-09T09:35:05.938Z,9.67
2024-03-09T09:37:32.983Z,9.23
2024-03-09T09:40:00.009Z,9.50
2024-03-09T09:42:30.533Z,10.27
2024-03-09T09:44:58.418Z,8.93
2024-03-09T09:47:26.246Z,8.40
2024-03-09T09:49:55.177Z,8.10
2024-03-09T09:52:25.961Z,9.23
2024-03-09T09:54:57.823Z,8.73
2024-03-09T09:57:25.385Z,8.93
2024-03-09T09:59:52.313Z,8.10
2024-03-09T10:02:19.705Z,8.83
2024-03-09T10:04:46.789Z,11.10
2024-03-09T10:07:13.776Z,7.00
2024-03-09T10:09:40.755Z,8.83
2024-03-09T10:12:23.068Z,7.73
2024-03-09T10:14:50.319Z,8.60
2024-03-09T10:17:17.795Z,7.70
2024-03-09T10:19:44.773Z,7.10
2024-03-09T10:22:11.738Z,6.83
2024-03-09T10:24:57.314Z,6.90
2024-03-09T10:27:24.753Z,6.73
2024-03-09T10:30:09.710Z,6.67
2024-03-09T10:32:37.050Z,6.27
2024-03-09T10:35:04.278Z,7.17
2024-03-09T10:37:32.398Z,6.93
2024-03-09T10:39:59.411Z,6.40
2024-03-09T10:42:28.824Z,6.90
2024-03-09T10:44:56.159Z,6.10
2024-03-09T10:47:23.724Z,6.33
2024-03-09T10:49:58.800Z,6.27
2024-03-09T10:52:28.906Z,6.50
2024-03-09T10:55:10.645Z,5.77
2024-03-09T10:57:39.747Z,6.40
2024-03-09T11:00:08.187Z,6.03
2024-03-09T11:02:35.919Z,5.57
2024-03-09T11:05:04.110Z,6.10
2024-03-09T11:07:31.413Z,5.53
2024-03-09T11:09:59.002Z,5.20
2024-03-09T11:12:26.282Z,5.77
2024-03-09T11:14:53.801Z,5.73
2024-03-09T11:17:21.002Z,5.73
2024-03-09T11:19:52.158Z,5.33
2024-03-09T11:22:57.244Z,6.03
2024-03-09T11:25:49.530Z,5.87
2024-03-09T11:28:17.431Z,6.20
2024-03-09T11:30:59.808Z,5.17
2024-03-09T11:33:27.363Z,6.00
2024-03-09T11:35:54.273Z,5.43
2024-03-09T11:38:22.283Z,6.00
2024-03-09T11:40:49.385Z,5.50
2024-03-09T11:43:16.389Z,6.00
2024-03-09T11:45:43.305Z,5.50
2024-03-09T11:48:10.644Z,5.50
2024-03-09T11:50:37.642Z,5.00
2024-03-09T11:53:05.066Z,5.90
2024-03-09T11:55:32.940Z,5.43
2024-03-09T11:57:59.910Z,5.00
2024-03-09T12:00:28.168Z,5.10
2024-03-09T12:03:00.336Z,5.30
2024-03-09T12:05:27.361Z,5.70
2024-03-09T12:07:54.381Z,5.07
2024-03-09T12:10:21.675Z,4.70
2024-03-09T12:12:48.610Z,4.17
2024-03-09T12:15:15.610Z,4.37
2024-03-09T12:17:42.772Z,5.07
2024-03-09T12:20:11.003Z,5.20
2024-03-09T12:22:38.021Z,4.23
2024-03-09T12:25:05.350Z,4.30
2024-03-09T12:27:32.563Z,4.50
2024-03-09T12:29:59.866Z,4.80
2024-03-09T12:32:27.047Z,4.20
2024-03-09T12:34:54.976Z,3.90
2024-03-09T12:37:26.868Z,3.97
2024-03-09T12:40:16.902Z,4.40
2024-03-09T12:42:44.042Z,3.57
2024-03-09T12:45:24.751Z,3.40
2024-03-09T12:47:51.938Z,3.93
2024-03-09T12:50:20.111Z,3.77
2024-03-09T12:52:55.547Z,3.60
2024-03-09T12:55:24.029Z,2.50
2024-03-09T12:57:51.496Z,2.60
2024-03-09T13:00:21.008Z,2.17
2024-03-09T13:02:48.531Z,2.27
2024-03-09T13:05:19.038Z,2.10
2024-03-09T13:07:54.168Z,2.80
2024-03-09T13:10:21.275Z,2.20
2024-03-09T13:12:49.170Z,1.77
2024-03-09T13:15:17.229Z,2.10
2024-03-09T13:17:44.205Z,2.10
2024-03-09T13:20:11.922Z,2.07
2024-03-09T13:22:38.918Z,1.93
2024-03-09T13:25:06.668Z,2.37
2024-03-09T13:27:33.594Z,1.57
2024-03-09T13:30:00.533Z,1.43
2024-03-09T13:32:27.460Z,1.83
2024-03-09T13:34:54.518Z,1.63
2024-03-09T13:37:21.433Z,1.50
2024-03-09T13:39:48.467Z,1.30
2024-03-09T13:42:15.534Z,1.47
2024-03-09T13:44:42.493Z,1.33
2024-03-09T13:47:09.509Z,1.20
2024-03-09T13:49:36.609Z,1.13
2024-03-09T13:52:03.650Z,1.00
2024-03-09T13:54:30.696Z,0.80
2024-03-09T13:56:57.630Z,0.87
2024-03-09T13:59:24.690Z,0.93
2024-03-09T14:01:51.746Z,1.20
2024-03-09T14:04:19.529Z,0.60
2024-03-09T14:07:02.275Z,0.60
2024-03-09T14:09:35.595Z,0.80
2024-03-09T14:12:02.674Z,1.53
2024-03-09T14:14:29.855Z,0.93
2024-03-09T14:16:56.846Z,0.80
2024-03-09T14:19:23.856Z,0.90
2024-03-09T14:21:50.821Z,0.70
2024-03-09T14:24:17.737Z,0.63
2024-03-09T14:26:44.723Z,0.60
2024-03-09T14:29:11.595Z,0.80
2024-03-09T14:31:38.579Z,0.60
2024-03-09T14:34:05.523Z,0.70
2024-03-09T14:36:32.465Z,0.97
2024-03-09T14:38:59.713Z,0.87
2024-03-09T14:41:27.303Z,0.83
2024-03-09T14:43:54.586Z,0.90
2024-03-09T14:46:21.676Z,1.00
2024-03-09T14:48:50.768Z,0.93
2024-03-09T14:51:19.663Z,0.80
2024-03-09T14:53:46.557Z,0.93
2024-03-09T14:56:13.485Z,0.83
2024-03-09T14:58:40.490Z,1.30
2024-03-09T15:01:10.335Z,1.10
2024-03-09T15:03:37.258Z,1.07
2024-03-09T15:06:04.640Z,1.00
2024-03-09T15:08:31.623Z,0.93
2024-03-09T15:10:59.963Z,1.10
2024-03-09T15:13:31.057Z,0.90
2024-03-09T15:15:58.126Z,0.90
2024-03-09T15:18:25.193Z,1.00
2024-03-09T15:20:52.066Z,0.70
2024-03-09T15:23:19.119Z,1.03
2024-03-09T15:25:46.088Z,1.03
2024-03-09T15:28:14.791Z,1.00
2024-03-09T15:30:41.832Z,1.20
2024-03-09T15:33:09.756Z,1.10
2024-03-09T15:35:36.890Z,1.20
2024-03-09T15:38:04.140Z,1.20
2024-03-09T15:40:31.131Z,1.17
2024-03-09T15:42:58.122Z,1.30
2024-03-09T15:45:25.000Z,1.40
2024-03-09T15:47:52.087Z,1.30
2024-03-09T15:50:21.921Z,1.30
2024-03-09T15:52:50.623Z,1.17
2024-03-09T15:55:17.513Z,1.13
2024-03-09T15:57:44.571Z,1.10
2024-03-09T16:00:12.782Z,1.40
2024-03-09T16:02:39.801Z,1.30
2024-03-09T16:05:07.732Z,1.40
2024-03-09T16:07:34.674Z,1.37
2024-03-09T16:10:01.591Z,1.10
2024-03-09T16:12:28.561Z,1.23
2024-03-09T16:14:55.495Z,1.70
2024-03-09T16:17:22.367Z,1.50
2024-03-09T16:19:49.356Z,1.80
2024-03-09T16:22:16.285Z,1.90
2024-03-09T16:24:43.210Z,2.00
2024-03-09T16:27:10.038Z,2.90
2024-03-09T16:29:36.968Z,1.60
2024-03-09T16:32:04.166Z,1.67
2024-03-09T16:34:32.581Z,1.40
2024-03-09T16:36:59.494Z,1.30
2024-03-09T16:39:27.793Z,1.40
2024-03-09T16:41:54.667Z,1.70
2024-03-09T16:44:21.626Z,1.90
2024-03-09T16:46:49.618Z,1.70
2024-03-09T16:49:19.756Z,2.03
2024-03-09T16:51:47.230Z,2.27
2024-03-09T16:54:14.080Z,1.40
2024-03-09T16:56:41.040Z,1.60
2024-03-09T16:59:07.962Z,1.87
2024-03-09T17:01:35.266Z,1.67
2024-03-09T17:04:02.289Z,1.73
2024-03-09T17:06:30.310Z,2.43
2024-03-09T17:08:57.269Z,1.90
2024-03-09T17:11:24.357Z,1.93
2024-03-09T17:13:51.362Z,2.23
2024-03-09T17:16:19.197Z,1.90
2024-03-09T17:18:47.941Z,1.83
2024-03-09T17:21:14.876Z,2.00
2024-03-09T17:23:41.951Z,2.03
2024-03-09T17:26:08.975Z,2.60
2024-03-09T17:28:35.939Z,2.00
2024-03-09T17:31:03.035Z,1.80
2024-03-09T17:33:29.919Z,2.27
2024-03-09T17:35:56.847Z,3.40
2024-03-09T17:38:23.806Z,2.23
2024-03-09T17:40:50.826Z,2.40
2024-03-09T17:43:17.831Z,1.40
2024-03-09T17:45:44.808Z,2.43
2024-03-09T17:48:11.775Z,1.87
2024-03-09T17:50:38.740Z,3.00
2024-03-09T17:53:05.712Z,2.80
2024-03-09T17:55:32.638Z,2.67
2024-03-09T17:57:59.867Z,2.97
2024-03-09T18:00:27.821Z,3.80
2024-03-09T18:02:59.989Z,3.70
2024-03-09T18:05:32.535Z,3.27
2024-03-09T18:08:03.441Z,2.70
2024-03-09T18:10:30.409Z,2.47
2024-03-09T18:12:57.320Z,3.13
2024-03-09T18:15:25.088Z,2.60
2024-03-09T18:17:52.990Z,2.87
2024-03-09T18:20:20.692Z,2.80
2024-03-09T18:22:47.669Z,3.30
2024-03-09T18:25:14.633Z,3.10
2024-03-09T18:27:41.567Z,3.80
2024-03-09T18:30:10.000Z,3.53
2024-03-09T18:32:36.923Z,2.90
2024-03-09T18:35:04.341Z,3.27
2024-03-09T18:37:31.253Z,2.70
2024-03-09T18:39:58.189Z,3.87
2024-03-09T18:42:25.113Z,2.67
2024-03-09T18:44:52.116Z,3.27
2024-03-09T18:47:19.080Z,3.00
2024-03-09T18:49:46.219Z,3.30
2024-03-09T18:52:13.152Z,3.57
2024-03-09T18:54:40.151Z,3.50
2024-03-09T18:57:07.432Z,3.10
2024-03-09T18:59:37.546Z,3.03
2024-03-09T19:02:04.662Z,3.40
2024-03-09T19:04:32.664Z,2.87
2024-03-09T19:06:59.844Z,2.87
2024-03-09T19:09:26.759Z,3.30
2024-03-09T19:11:54.232Z,3.57
2024-03-09T19:14:22.049Z,2.63
2024-03-09T19:16:49.466Z,3.50
2024-03-09T19:19:16.471Z,3.07
2024-03-09T19:21:43.333Z,3.27
2024-03-09T19:24:10.263Z,3.53
2024-03-09T19:26:37.273Z,4.30
2024-03-09T19:29:04.284Z,3.90
2024-03-09T19:31:31.201Z,3.90
2024-03-09T19:33:59.145Z,3.53
2024-03-09T19:36:26.079Z,3.93
2024-03-09T19:38:53.047Z,3.43
2024-03-09T19:41:20.159Z,3.50
2024-03-09T19:43:47.200Z,4.23
2024-03-09T19:46:14.170Z,4.30
2024-03-09T19:48:41.254Z,3.90
2024-03-09T19:51:08.183Z,4.20
2024-03-09T19:53:36.189Z,3.67
2024-03-09T19:56:03.380Z,4.47
2024-03-09T19:58:30.244Z,4.10
2024-03-09T20:00:57.142Z,4.70
2024-03-09T20:03:24.143Z,4.77
2024-03-09T20:05:51.094Z,4.80
2024-03-09T20:08:18.078Z,4.40
2024-03-09T20:10:45.031Z,5.40
2024-03-09T20:13:12.013Z,4.70
2024-03-09T20:15:39.575Z,4.70
2024-03-09T20:18:06.576Z,4.30
2024-03-09T20:20:33.863Z,4.47
2024-03-09T20:23:00.976Z,4.70
2024-03-09T20:25:28.188Z,4.10
2024-03-09T20:27:56.648Z,5.40
2024-03-09T20:30:24.023Z,4.77
2024-03-09T20:32:51.490Z,5.00
2024-03-09T20:35:19.539Z,4.73
2024-03-09T20:37:48.214Z,4.03
2024-03-09T20:40:15.991Z,4.90
2024-03-09T20:42:45.579Z,5.13
2024-03-09T20:45:12.879Z,4.83
2024-03-09T20:47:40.012Z,4.80
2024-03-09T20:50:07.461Z,5.17
2024-03-09T20:52:35.566Z,5.47
2024-03-09T20:55:02.488Z,5.20
2024-03-09T20:57:29.413Z,5.07
2024-03-09T20:59:56.557Z,5.33
2024-03-09T21:02:23.501Z,5.47
2024-03-09T21:04:52.768Z,5.30
2024-03-09T21:07:19.863Z,5.27
2024-03-09T21:09:46.796Z,5.00
2024-03-09T21:12:13.872Z,5.13
2024-03-09T21:14:41.115Z,4.97
2024-03-09T21:17:08.164Z,4.80
2024-03-09T21:19:35.413Z,5.00
2024-03-09T21:22:02.282Z,5.03
2024-03-09T21:24:29.129Z,4.90
2024-03-09T21:26:56.491Z,5.00
2024-03-09T21:29:23.347Z,5.07
2024-03-09T21:31:50.286Z,5.57
2024-03-09T21:34:17.222Z,5.00
2024-03-09T21:36:44.153Z,5.23
2024-03-09T21:39:11.098Z,4.90
2024-03-09T21:41:38.134Z,4.80
2024-03-09T21:44:06.035Z,4.30
2024-03-09T21:46:34.171Z,4.63
2024-03-09T21:49:01.070Z,5.37
2024-03-09T21:51:28.079Z,4.87
2024-03-09T21:53:55.021Z,4.70
2024-03-09T21:56:22.033Z,6.03
2024-03-09T21:58:48.976Z,5.77
2024-03-09T22:01:16.010Z,4.93
2024-03-09T22:03:42.951Z,5.10
2024-03-09T22:06:10.653Z,5.93
2024-03-09T22:08:38.696Z,4.33
2024-03-09T22:11:05.755Z,5.30
2024-03-09T22:13:32.787Z,5.57
2024-03-09T22:15:59.723Z,5.00
2024-03-09T22:18:26.712Z,5.00
2024-03-09T22:20:53.652Z,5.27
2024-03-09T22:23:20.569Z,6.20
2024-03-09T22:25:47.658Z,5.17
2024-03-09T22:28:14.732Z,5.60
2024-03-09T22:30:41.654Z,4.97
2024-03-09T22:33:08.775Z,5.00
2024-03-09T22:35:35.889Z,5.17
2024-03-09T22:38:03.010Z,5.20
2024-03-09T22:40:30.097Z,4.33
2024-03-09T22:42:57.020Z,4.80
2024-03-09T22:45:24.049Z,5.40
2024-03-09T22:47:51.231Z,4.90
2024-03-09T22:50:25.153Z,4.57
2024-03-09T22:52:54.378Z,5.17
2024-03-09T22:55:21.845Z,4.93
2024-03-09T22:57:48.742Z,5.13
2024-03-09T23:00:17.291Z,5.53
2024-03-09T23:02:44.188Z,5.10
2024-03-09T23:05:11.119Z,4.17
2024-03-09T23:07:38.032Z,5.37
2024-03-09T23:10:05.464Z,5.17
2024-03-09T23:12:32.413Z,4.50
2024-03-09T23:14:59.320Z,5.00
2024-03-09T23:17:26.295Z,5.47
2024-03-09T23:19:53.163Z,5.03
2024-03-09T23:22:20.072Z,5.90
2024-03-09T23:24:46.977Z,5.50
2024-03-09T23:27:13.889Z,6.30
2024-03-09T23:29:40.747Z,5.30
2024-03-09T23:32:07.757Z,5.00
2024-03-09T23:34:34.671Z,5.37
2024-03-09T23:37:01.587Z,5.40
2024-03-09T23:39:28.487Z,5.80
2024-03-09T23:41:55.411Z,6.30
2024-03-09T23:44:22.413Z,5.60
2024-03-09T23:46:49.420Z,5.03
2024-03-09T23:49:16.230Z,5.40
2024-03-09T23:51:43.292Z,5.67
2024-03-09T23:54:10.523Z,4.83
2024-03-09T23:56:37.686Z,6.37
2024-03-09T23:59:04.637Z,4.90
